createdAt,value
2023-04-22T00:01:10.367Z,100295.11
2023-04-22T00:03:42.488Z,100293.30
2023-04-22T00:06:12.445Z,100292.52
2023-04-22T00:08:41.737Z,100295.14
2023-04-22T00:11:11.453Z,100295.59
2023-04-22T00:13:40.648Z,100292.98
2023-04-22T00:16:10.120Z,100289.91
2023-04-22T00:18:39.866Z,100287.80
2023-04-22T00:21:09.270Z,100290.08
2023-04-22T00:23:38.585Z,100290.90
2023-04-22T00:26:07.889Z,100293.02
2023-04-22T00:28:39.012Z,100291.04
2023-04-22T00:31:08.508Z,100288.49
2023-04-22T00:33:38.446Z,100284.66
2023-04-22T00:36:08.140Z,100281.70
2023-04-22T00:38:37.503Z,100282.41
2023-04-22T00:41:08.683Z,100286.67
2023-04-22T00:43:38.089Z,100285.76
2023-04-22T00:46:07.803Z,100285.82
2023-04-22T00:48:38.537Z,100291.16
2023-04-22T00:51:08.345Z,100294.41
2023-04-22T00:53:37.753Z,100299.70
2023-04-22T00:56:08.078Z,100300.21
2023-04-22T00:58:37.372Z,100299.02
2023-04-22T01:01:07.181Z,100293.73
2023-04-22T01:03:40.656Z,100294.13
2023-04-22T01:06:10.295Z,100299.23
2023-04-22T01:08:41.072Z,100303.87
2023-04-22T01:11:10.331Z,100308.18
2023-04-22T01:13:41.489Z,100306.47
2023-04-22T01:16:11.146Z,100307.58
2023-04-22T01:18:40.491Z,100302.77
2023-04-22T01:21:09.993Z,100301.88
2023-04-22T01:23:39.995Z,100303.80
2023-04-22T01:26:09.268Z,100307.87
2023-04-22T01:28:39.126Z,100305.55
2023-04-22T01:31:09.770Z,100311.72
2023-04-22T01:33:39.164Z,100304.35
2023-04-22T01:36:10.347Z,100306.89
2023-04-22T01:38:41.652Z,100307.38
2023-04-22T01:41:11.076Z,100304.80
2023-04-22T01:43:40.769Z,100304.30
2023-04-22T01:46:10.828Z,100298.46
2023-04-22T01:48:40.802Z,100299.53
2023-04-22T01:51:10.103Z,100297.40
2023-04-22T01:53:39.404Z,100299.17
2023-04-22T01:56:08.808Z,100302.64
2023-04-22T01:58:40.777Z,100304.15
2023-04-22T02:01:12.261Z,100300.94
2023-04-22T02:03:44.241Z,100302.63
2023-04-22T02:06:15.024Z,100302.30
2023-04-22T02:08:47.187Z,100300.94
2023-04-22T02:11:17.621Z,100302.20
2023-04-22T02:13:47.338Z,100301.30
2023-04-22T02:16:16.697Z,100297.48
2023-04-22T02:18:46.234Z,100297.52
2023-04-22T02:21:15.950Z,100295.63
2023-04-22T02:23:45.450Z,100300.25
2023-04-22T02:26:14.954Z,100306.09
2023-04-22T02:28:44.359Z,100306.54
2023-04-22T02:31:13.921Z,100307.19
2023-04-22T02:33:43.173Z,100308.33
2023-04-22T02:36:12.567Z,100305.63
2023-04-22T02:38:41.973Z,100305.64
2023-04-22T02:41:11.594Z,100306.90
2023-04-22T02:43:46.125Z,100308.70
2023-04-22T02:46:16.706Z,100309.09
2023-04-22T02:48:46.442Z,100312.83
2023-04-22T02:51:16.261Z,100313.77
2023-04-22T02:53:45.661Z,100312.99
2023-04-22T02:56:15.062Z,100309.69
2023-04-22T02:58:44.568Z,100312.23
2023-04-22T03:01:13.893Z,100318.90
2023-04-22T03:03:44.045Z,100324.77
2023-04-22T03:06:15.744Z,100331.70
2023-04-22T03:08:45.045Z,100332.86
2023-04-22T03:11:14.654Z,100332.29
2023-04-22T03:13:44.570Z,100331.83
2023-04-22T03:16:14.177Z,100331.81
2023-04-22T03:18:44.808Z,100338.61
2023-04-22T03:21:15.138Z,100340.27
2023-04-22T03:23:44.543Z,100342.15
2023-04-22T03:26:14.251Z,100349.70
2023-04-22T03:28:43.960Z,100347.73
2023-04-22T03:31:13.260Z,100352.41
2023-04-22T03:33:42.867Z,100349.19
2023-04-22T03:36:19.031Z,100346.23
2023-04-22T03:38:48.435Z,100347.83
2023-04-22T03:41:18.043Z,100348.83
2023-04-22T03:43:49.597Z,100356.45
2023-04-22T03:46:19.877Z,100358.86
2023-04-22T03:48:56.637Z,100358.81
2023-04-22T03:51:29.502Z,100365.71
2023-04-22T03:53:59.805Z,100360.81
2023-04-22T03:56:30.128Z,100364.48
2023-04-22T03:59:01.374Z,100366.47
2023-04-22T04:01:30.980Z,100364.95
2023-04-22T04:04:02.980Z,100367.49
2023-04-22T04:06:39.617Z,100368.02
2023-04-22T04:09:09.228Z,100370.83
2023-04-22T04:11:38.546Z,100372.51
2023-04-22T04:14:08.346Z,100374.21
2023-04-22T04:16:48.402Z,100379.52
2023-04-22T04:19:27.321Z,100381.36
2023-04-22T04:21:57.252Z,100386.83
2023-04-22T04:24:28.587Z,100384.77
2023-04-22T04:27:04.435Z,100387.64
2023-04-22T04:29:41.578Z,100390.73
2023-04-22T04:32:15.939Z,100398.21
2023-04-22T04:34:45.343Z,100401.90
2023-04-22T04:37:17.834Z,100405.36
2023-04-22T04:39:59.637Z,100408.27
2023-04-22T04:42:34.557Z,100409.42
2023-04-22T04:45:09.420Z,100411.23
2023-04-22T04:47:39.235Z,100413.00
2023-04-22T04:50:22.925Z,100413.23
2023-04-22T04:52:52.990Z,100415.23
2023-04-22T04:55:26.436Z,100415.42
2023-04-22T04:57:56.364Z,100426.48
2023-04-22T05:00:25.762Z,100428.11
2023-04-22T05:02:55.461Z,100426.02
2023-04-22T05:05:25.001Z,100430.23
2023-04-22T05:07:54.482Z,100431.54
2023-04-22T05:10:25.343Z,100436.02
2023-04-22T05:12:55.545Z,100440.86
2023-04-22T05:15:26.786Z,100441.45
2023-04-22T05:17:56.001Z,100444.28
2023-04-22T05:20:25.789Z,100454.04
2023-04-22T05:22:55.634Z,100462.52
2023-04-22T05:25:25.223Z,100465.14
2023-04-22T05:27:59.344Z,100464.86
2023-04-22T05:30:30.990Z,100470.89
2023-04-22T05:33:00.644Z,100476.51
2023-04-22T05:35:30.825Z,100472.46
2023-04-22T05:38:01.251Z,100476.45
2023-04-22T05:40:30.447Z,100476.93
2023-04-22T05:43:00.780Z,100481.38
2023-04-22T05:45:30.172Z,100476.45
2023-04-22T05:47:59.952Z,100482.67
2023-04-22T05:50:31.545Z,100488.00
2023-04-22T05:53:06.678Z,100489.52
2023-04-22T05:55:36.801Z,100492.21
2023-04-22T05:58:06.922Z,100492.49
2023-04-22T06:00:53.441Z,100500.55
2023-04-22T06:03:37.360Z,100503.97
2023-04-22T06:06:08.940Z,100505.67
2023-04-22T06:08:38.322Z,100508.95
2023-04-22T06:11:08.132Z,100504.61
2023-04-22T06:13:38.080Z,100508.76
2023-04-22T06:18:38.644Z,100515.16
2023-04-22T06:21:10.880Z,100517.05
2023-04-22T06:23:40.588Z,100514.62
2023-04-22T06:26:09.979Z,100516.40
2023-04-22T06:28:40.102Z,100516.21
2023-04-22T06:31:13.733Z,100518.77
2023-04-22T06:33:43.719Z,100519.16
2023-04-22T06:36:14.247Z,100521.86
2023-04-22T06:38:43.957Z,100522.31
2023-04-22T06:41:33.438Z,100528.30
2023-04-22T06:44:07.342Z,100525.60
2023-04-22T06:47:35.647Z,100521.67
2023-04-22T06:50:15.882Z,100532.09
2023-04-22T06:52:58.089Z,100536.14
2023-04-22T06:55:27.591Z,100538.92
2023-04-22T06:57:57.003Z,100541.89
2023-04-22T07:00:26.347Z,100542.27
2023-04-22T07:02:56.439Z,100545.55
2023-04-22T07:05:26.114Z,100544.92
2023-04-22T07:07:55.944Z,100547.41
2023-04-22T07:10:26.438Z,100549.77
2023-04-22T07:13:27.223Z,100555.87
2023-04-22T07:15:57.026Z,100554.90
2023-04-22T07:18:26.460Z,100556.27
2023-04-22T07:20:56.029Z,100557.15
2023-04-22T07:23:25.530Z,100564.81
2023-04-22T07:25:55.245Z,100562.11
2023-04-22T07:28:24.750Z,100567.52
2023-04-22T07:30:55.996Z,100563.81
2023-04-22T07:33:25.506Z,100563.17
2023-04-22T07:35:55.171Z,100562.79
2023-04-22T07:38:25.227Z,100561.84
2023-04-22T07:40:54.529Z,100563.27
2023-04-22T07:43:24.099Z,100572.70
2023-04-22T07:45:53.589Z,100572.14
2023-04-22T07:48:23.501Z,100566.30
2023-04-22T07:50:52.759Z,100565.46
2023-04-22T07:53:22.265Z,100574.09
2023-04-22T07:55:52.003Z,100576.86
2023-04-22T07:58:21.680Z,100581.30
2023-04-22T08:00:51.646Z,100580.37
2023-04-22T08:03:21.433Z,100582.80
2023-04-22T08:05:51.542Z,100583.95
2023-04-22T08:08:21.046Z,100583.14
2023-04-22T08:10:50.339Z,100584.02
2023-04-22T08:13:19.620Z,100585.31
2023-04-22T08:15:49.269Z,100587.52
2023-04-22T08:18:18.446Z,100579.31
2023-04-22T08:20:48.360Z,100584.55
2023-04-22T08:23:17.573Z,100586.91
2023-04-22T08:25:46.868Z,100584.36
2023-04-22T08:28:16.052Z,100583.84
2023-04-22T08:30:45.464Z,100582.97
2023-04-22T08:33:16.402Z,100576.90
2023-04-22T08:35:45.708Z,100580.80
2023-04-22T08:38:15.004Z,100581.81
2023-04-22T08:40:44.517Z,100583.18
2023-04-22T08:43:14.246Z,100581.23
2023-04-22T08:45:45.327Z,100570.05
2023-04-22T08:48:15.485Z,100573.86
2023-04-22T08:50:47.894Z,100569.43
2023-04-22T08:53:17.364Z,100573.58
2023-04-22T08:55:47.278Z,100572.91
2023-04-22T08:58:16.680Z,100572.38
2023-04-22T09:00:46.285Z,100568.17
2023-04-22T09:03:16.820Z,100571.10
2023-04-22T09:05:50.014Z,100569.89
2023-04-22T09:08:20.573Z,100570.34
2023-04-22T09:10:50.784Z,100566.54
2023-04-22T09:13:21.698Z,100564.23
2023-04-22T09:15:50.932Z,100567.81
2023-04-22T09:18:20.610Z,100564.41
2023-04-22T09:20:56.746Z,100560.96
2023-04-22T09:23:26.784Z,100560.84
2023-04-22T09:25:57.628Z,100561.27
2023-04-22T09:28:27.317Z,100559.25
2023-04-22T09:31:01.025Z,100557.79
2023-04-22T09:33:32.350Z,100561.59
2023-04-22T09:36:09.286Z,100559.25
2023-04-22T09:38:38.593Z,100560.09
2023-04-22T09:41:12.531Z,100558.95
2023-04-22T09:43:41.880Z,100557.20
2023-04-22T09:46:11.658Z,100551.45
2023-04-22T09:48:46.258Z,100557.06
2023-04-22T09:51:17.478Z,100556.77
2023-04-22T09:54:00.281Z,100553.14
2023-04-22T09:57:02.758Z,100554.60
2023-04-22T09:59:32.236Z,100553.41
2023-04-22T10:02:06.909Z,100550.98
2023-04-22T10:04:36.929Z,100549.42
2023-04-22T10:07:06.419Z,100552.14
2023-04-22T10:09:35.923Z,100546.11
2023-04-22T10:12:05.375Z,100544.38
2023-04-22T10:14:36.161Z,100537.07
2023-04-22T10:17:06.774Z,100537.05
2023-04-22T10:19:36.834Z,100534.32
2023-04-22T10:22:08.188Z,100534.45
2023-04-22T10:24:38.308Z,100530.46
2023-04-22T10:27:10.919Z,100533.46
2023-04-22T10:29:43.746Z,100535.54
2023-04-22T10:32:18.961Z,100528.42
2023-04-22T10:34:50.353Z,100530.01
2023-04-22T10:37:21.823Z,100529.40
2023-04-22T10:40:18.619Z,100521.73
2023-04-22T10:42:53.514Z,100522.30
2023-04-22T10:45:26.663Z,100525.42
2023-04-22T10:47:56.281Z,100522.92
2023-04-22T10:50:27.922Z,100514.83
2023-04-22T10:53:18.712Z,100517.95
2023-04-22T10:55:53.092Z,100513.30
2023-04-22T10:58:24.656Z,100513.66
2023-04-22T11:01:03.362Z,100514.63
2023-04-22T11:03:33.125Z,100512.57
2023-04-22T11:06:22.522Z,100515.06
2023-04-22T11:09:09.197Z,100519.87
2023-04-22T11:11:39.122Z,100520.10
2023-04-22T11:14:11.550Z,100516.30
2023-04-22T11:16:47.784Z,100516.88
2023-04-22T11:19:17.880Z,100516.07
2023-04-22T11:21:47.844Z,100512.55
2023-04-22T11:24:19.442Z,100514.58
2023-04-22T11:26:49.668Z,100518.79
2023-04-22T11:29:18.868Z,100520.55
2023-04-22T11:31:49.509Z,100518.46
2023-04-22T11:34:20.041Z,100516.43
2023-04-22T11:36:49.329Z,100513.45
2023-04-22T11:39:18.834Z,100511.66
2023-04-22T11:41:48.394Z,100511.15
2023-04-22T11:44:23.892Z,100513.53
2023-04-22T11:46:57.285Z,100505.96
2023-04-22T11:49:28.114Z,100505.29
2023-04-22T11:51:57.956Z,100506.28
2023-04-22T11:54:35.926Z,100514.80
2023-04-22T11:57:12.009Z,100511.03
2023-04-22T11:59:42.642Z,100514.20
2023-04-22T12:02:12.034Z,100516.02
2023-04-22T12:04:43.627Z,100517.67
2023-04-22T12:07:12.899Z,100513.70
2023-04-22T12:09:42.590Z,100512.64
2023-04-22T12:12:11.943Z,100500.34
2023-04-22T12:14:46.108Z,100500.61
2023-04-22T12:17:16.570Z,100496.85
2023-04-22T12:19:49.250Z,100490.43
2023-04-22T12:22:31.009Z,100488.01
2023-04-22T12:25:01.776Z,100484.98
2023-04-22T12:27:31.762Z,100484.42
2023-04-22T12:30:01.678Z,100483.04
2023-04-22T12:32:30.876Z,100480.27
2023-04-22T12:35:00.386Z,100480.30
2023-04-22T12:37:29.585Z,100479.73
2023-04-22T12:39:58.883Z,100479.48
2023-04-22T12:42:29.251Z,100483.02
2023-04-22T12:44:58.405Z,100481.17
2023-04-22T12:47:27.638Z,100480.45
2023-04-22T12:49:58.762Z,100487.23
2023-04-22T12:52:28.356Z,100483.89
